createdAt,value
2022-10-19T00:00:30.715Z,100.00
2022-10-19T00:05:32.201Z,100.00
2022-10-19T00:10:34.221Z,100.00
2022-10-19T00:15:39.801Z,100.00
2022-10-19T00:20:41.343Z,100.00
2022-10-19T00:25:42.859Z,100.00
2022-10-19T00:30:44.440Z,100.00
2022-10-19T00:35:45.991Z,100.00
2022-10-19T00:40:48.722Z,100.00
2022-10-19T00:45:51.026Z,100.00
2022-10-19T00:50:56.051Z,100.00
2022-10-19T00:55:59.680Z,100.00
2022-10-19T01:01:04.587Z,100.00
2022-10-19T01:06:06.474Z,100.00
2022-10-19T01:11:35.597Z,100.00
2022-10-19T01:16:52.479Z,100.00
2022-10-19T01:22:08.868Z,100.00
2022-10-19T01:27:13.112Z,100.00
2022-10-19T01:32:37.688Z,100.00
2022-10-19T01:38:10.889Z,100.00
2022-10-19T01:43:30.772Z,100.00
2022-10-19T01:48:35.833Z,100.00
2022-10-19T01:53:44.407Z,100.00
2022-10-19T01:58:47.358Z,100.00
2022-10-19T02:03:50.213Z,100.00
2022-10-19T02:08:53.932Z,100.00
2022-10-19T02:14:12.842Z,100.00
2022-10-19T02:19:16.428Z,100.00
2022-10-19T02:24:18.473Z,100.00
2022-10-19T02:29:20.385Z,100.00
2022-10-19T02:34:21.985Z,100.00
2022-10-19T02:39:24.116Z,100.00
2022-10-19T02:44:40.756Z,100.00
2022-10-19T02:49:43.576Z,100.00
2022-10-19T02:54:45.258Z,100.00
2022-10-19T02:59:46.979Z,100.00
2022-10-19T03:04:48.549Z,100.00
2022-10-19T03:09:50.269Z,100.00
2022-10-19T03:14:51.806Z,100.00
2022-10-19T03:19:53.283Z,100.00
2022-10-19T03:24:54.806Z,100.00
2022-10-19T03:29:56.279Z,100.00
2022-10-19T03:34:57.841Z,100.00
2022-10-19T03:39:59.399Z,100.00
2022-10-19T03:45:01.028Z,100.00
2022-10-19T03:50:02.614Z,100.00
2022-10-19T03:55:04.394Z,100.00
2022-10-19T04:00:06.413Z,100.00
2022-10-19T04:05:13.451Z,100.00
2022-10-19T04:10:15.064Z,100.00
2022-10-19T04:15:16.691Z,100.00
2022-10-19T04:20:18.259Z,100.00
2022-10-19T04:25:19.820Z,100.00
2022-10-19T04:30:21.320Z,100.00
2022-10-19T04:35:22.823Z,100.00
2022-10-19T04:40:24.291Z,100.00
2022-10-19T04:45:25.825Z,100.00
2022-10-19T04:50:27.312Z,100.00
2022-10-19T04:55:30.341Z,100.00
2022-10-19T05:00:31.828Z,100.00
2022-10-19T05:05:33.520Z,100.00
2022-10-19T05:10:36.389Z,100.00
2022-10-19T05:15:37.886Z,100.00
2022-10-19T05:20:39.392Z,100.00
2022-10-19T05:25:40.855Z,100.00
2022-10-19T05:30:46.709Z,100.00
2022-10-19T05:35:50.385Z,100.00
2022-10-19T05:40:53.730Z,100.00
2022-10-19T05:45:55.467Z,100.00
2022-10-19T05:50:57.025Z,100.00
2022-10-19T05:55:58.811Z,100.00
2022-10-19T06:01:01.522Z,100.00
2022-10-19T06:06:05.225Z,100.00
2022-10-19T06:11:12.485Z,100.00
2022-10-19T06:16:16.019Z,100.00
2022-10-19T06:21:20.920Z,100.00
2022-10-19T06:26:22.966Z,100.00
2022-10-19T06:31:24.676Z,100.00
2022-10-19T06:36:28.754Z,100.00
2022-10-19T06:41:31.322Z,100.00
2022-10-19T06:46:44.103Z,100.00
2022-10-19T06:51:45.658Z,100.00
2022-10-19T06:56:47.310Z,100.00
2022-10-19T07:01:51.726Z,100.00
2022-10-19T07:06:53.338Z,100.00
2022-10-19T07:11:55.274Z,100.00
2022-10-19T07:16:57.263Z,100.00
2022-10-19T07:21:58.898Z,100.00
2022-10-19T07:27:00.520Z,100.00
2022-10-19T07:32:02.027Z,100.00
2022-10-19T07:37:03.535Z,100.00
2022-10-19T07:42:05.064Z,100.00
2022-10-19T07:47:08.496Z,100.00
2022-10-19T07:52:09.998Z,100.00
2022-10-19T07:57:11.993Z,100.00
2022-10-19T08:02:15.799Z,100.00
2022-10-19T08:07:17.584Z,100.00
2022-10-19T08:12:19.147Z,100.00
2022-10-19T08:17:20.652Z,100.00
2022-10-19T08:22:22.318Z,100.00
2022-10-19T08:27:23.956Z,100.00
2022-10-19T08:32:25.570Z,100.00
2022-10-19T08:37:40.797Z,100.00
2022-10-19T08:42:53.617Z,100.00
2022-10-19T08:48:10.207Z,100.00
2022-10-19T08:53:33.201Z,100.00
2022-10-19T08:59:05.497Z,100.00
2022-10-19T09:04:32.702Z,100.00
2022-10-19T09:09:38.139Z,100.00
2022-10-19T09:14:57.687Z,100.00
2022-10-19T09:20:16.827Z,100.00
2022-10-19T09:25:23.196Z,100.00
2022-10-19T09:30:24.604Z,100.00
2022-10-19T09:35:36.021Z,100.00
2022-10-19T09:40:37.584Z,100.00
2022-10-19T09:46:10.557Z,100.00
2022-10-19T09:51:19.960Z,100.00
2022-10-19T09:56:26.743Z,100.00
2022-10-19T10:01:41.613Z,100.00
2022-10-19T10:06:48.098Z,100.00
2022-10-19T10:11:51.046Z,100.00
2022-10-19T10:17:12.643Z,100.00
2022-10-19T10:22:28.043Z,100.00
2022-10-19T10:27:38.302Z,100.00
2022-10-19T10:32:50.079Z,100.00
2022-10-19T10:37:52.838Z,100.00
2022-10-19T10:42:57.614Z,100.00
2022-10-19T10:48:13.808Z,98.34
2022-10-19T10:53:36.090Z,97.23
2022-10-19T10:59:21.865Z,93.63
2022-10-19T11:04:28.356Z,92.35
2022-10-19T11:09:42.258Z,93.34
2022-10-19T11:14:43.754Z,95.43
2022-10-19T11:19:45.493Z,100.00
2022-10-19T11:24:49.595Z,100.00
2022-10-19T11:29:57.051Z,100.00
2022-10-19T11:35:20.366Z,100.00
2022-10-19T11:40:26.088Z,91.76
2022-10-19T11:45:58.343Z,98.03
2022-10-19T11:51:20.831Z,95.11
2022-10-19T11:57:02.184Z,93.44
2022-10-19T12:02:36.054Z,94.49
2022-10-19T12:08:05.144Z,93.16
2022-10-19T12:13:13.198Z,90.44
2022-10-19T12:18:36.494Z,93.72
2022-10-19T12:23:40.023Z,96.54
2022-10-19T12:28:46.864Z,88.25
2022-10-19T12:34:27.105Z,95.91
2022-10-19T12:39:40.700Z,91.99
2022-10-19T12:45:03.973Z,95.10
2022-10-19T12:50:05.762Z,94.35
2022-10-19T12:55:16.088Z,91.87
2022-10-19T13:00:23.824Z,93.79
2022-10-19T13:05:29.231Z,96.96
2022-10-19T13:10:32.766Z,93.81
2022-10-19T13:15:34.362Z,97.34
2022-10-19T13:25:45.523Z,98.61
2022-10-19T13:30:47.029Z,100.00
2022-10-19T13:35:49.262Z,93.38
2022-10-19T13:40:50.730Z,100.00
2022-10-19T13:46:01.061Z,100.00
2022-10-19T13:51:20.103Z,97.75
2022-10-19T13:56:39.078Z,100.00
2022-10-19T14:02:19.333Z,100.00
2022-10-19T14:07:30.089Z,100.00
2022-10-19T14:12:35.918Z,100.00
2022-10-19T14:17:42.109Z,100.00
2022-10-19T14:22:43.497Z,100.00
2022-10-19T14:27:56.739Z,100.00
2022-10-19T14:33:02.289Z,100.00
2022-10-19T14:38:09.046Z,100.00
2022-10-19T14:43:26.788Z,100.00
2022-10-19T14:48:28.294Z,100.00
2022-10-19T14:54:13.651Z,100.00
2022-10-19T14:59:32.263Z,100.00
2022-10-19T15:04:38.095Z,96.61
2022-10-19T15:09:48.697Z,95.85
2022-10-19T15:14:50.644Z,94.75
2022-10-19T15:19:52.638Z,97.32
2022-10-19T15:25:17.330Z,99.86
2022-10-19T15:30:18.833Z,100.00
2022-10-19T15:35:27.060Z,100.00
2022-10-19T15:40:37.289Z,100.00
2022-10-19T15:45:38.819Z,100.00
2022-10-19T15:50:44.520Z,100.00
2022-10-19T15:55:46.258Z,100.00
2022-10-19T16:00:48.059Z,100.00
2022-10-19T16:05:49.568Z,100.00
2022-10-19T16:10:51.159Z,100.00
2022-10-19T16:16:11.358Z,100.00
2022-10-19T16:21:13.856Z,100.00
2022-10-19T16:26:16.169Z,100.00
2022-10-19T16:31:18.102Z,100.00
2022-10-19T16:36:19.726Z,100.00
2022-10-19T16:41:21.386Z,100.00
2022-10-19T16:46:24.048Z,100.00
2022-10-19T16:51:25.596Z,100.00
2022-10-19T16:56:29.518Z,100.00
2022-10-19T17:01:32.587Z,100.00
2022-10-19T17:06:34.463Z,100.00
2022-10-19T17:11:38.800Z,100.00
2022-10-19T17:16:40.680Z,100.00
2022-10-19T17:21:42.540Z,100.00
2022-10-19T17:26:44.768Z,100.00
2022-10-19T17:31:46.577Z,100.00
2022-10-19T17:36:48.186Z,100.00
2022-10-19T17:41:51.444Z,100.00
2022-10-19T17:46:52.951Z,100.00
2022-10-19T17:51:54.476Z,100.00
2022-10-19T17:56:56.010Z,100.00
2022-10-19T18:01:57.646Z,100.00
2022-10-19T18:06:59.122Z,100.00
2022-10-19T18:12:04.787Z,100.00
2022-10-19T18:17:08.788Z,100.00
2022-10-19T18:22:10.269Z,100.00
2022-10-19T18:27:11.740Z,100.00
2022-10-19T18:32:13.231Z,100.00
2022-10-19T18:37:14.760Z,100.00
2022-10-19T18:42:16.293Z,100.00
2022-10-19T18:47:17.796Z,100.00
2022-10-19T18:52:19.361Z,100.00
2022-10-19T18:57:20.939Z,100.00
2022-10-19T19:02:28.565Z,100.00
2022-10-19T19:07:36.935Z,100.00
2022-10-19T19:12:38.751Z,100.00
2022-10-19T19:17:40.301Z,100.00
2022-10-19T19:22:41.890Z,100.00
2022-10-19T19:27:43.405Z,100.00
2022-10-19T19:32:44.984Z,100.00
2022-10-19T19:37:46.531Z,100.00
2022-10-19T19:42:48.051Z,100.00
2022-10-19T19:47:49.584Z,100.00
2022-10-19T19:52:51.065Z,100.00
2022-10-19T19:57:52.742Z,100.00
2022-10-19T20:02:56.189Z,100.00
2022-10-19T20:07:57.824Z,100.00
2022-10-19T20:12:59.389Z,100.00
2022-10-19T20:18:01.005Z,100.00
2022-10-19T20:23:02.626Z,100.00
2022-10-19T20:28:04.442Z,100.00
2022-10-19T20:33:05.955Z,100.00
2022-10-19T20:38:07.493Z,100.00
2022-10-19T20:43:08.999Z,100.00
2022-10-19T20:48:10.544Z,100.00
2022-10-19T20:53:15.034Z,100.00
2022-10-19T20:58:16.552Z,100.00
2022-10-19T21:03:18.053Z,100.00
2022-10-19T21:08:19.586Z,100.00
2022-10-19T21:13:21.076Z,100.00
2022-10-19T21:18:22.584Z,100.00
2022-10-19T21:23:24.122Z,100.00
2022-10-19T21:28:25.674Z,100.00
2022-10-19T21:33:27.224Z,100.00
2022-10-19T21:38:29.762Z,100.00
2022-10-19T21:43:31.756Z,100.00
2022-10-19T21:48:35.195Z,100.00
2022-10-19T21:53:36.759Z,100.00
2022-10-19T21:58:38.351Z,100.00
2022-10-19T22:03:39.866Z,100.00
2022-10-19T22:08:45.104Z,100.00
2022-10-19T22:13:46.787Z,100.00
2022-10-19T22:18:48.764Z,100.00
2022-10-19T22:23:58.728Z,100.00
2022-10-19T22:29:01.148Z,100.00
2022-10-19T22:34:06.588Z,100.00
2022-10-19T22:39:08.615Z,100.00
2022-10-19T22:44:10.150Z,100.00
2022-10-19T22:49:11.759Z,100.00
2022-10-19T22:54:13.678Z,100.00
2022-10-19T22:59:15.264Z,100.00
2022-10-19T23:04:16.779Z,100.00
2022-10-19T23:09:18.404Z,100.00
2022-10-19T23:14:19.901Z,100.00
2022-10-19T23:19:21.546Z,100.00
2022-10-19T23:24:23.072Z,100.00
2022-10-19T23:29:24.571Z,100.00
2022-10-19T23:34:26.172Z,100.00
2022-10-19T23:39:27.723Z,100.00
2022-10-19T23:44:29.248Z,100.00
2022-10-19T23:49:30.767Z,100.00
2022-10-19T23:54:32.420Z,100.00
2022-10-19T23:59:34.076Z,100.00
